Time;durP1;ratioP1;P1;durP2;ratioP2;P2;SDS_P1;SDS_P2;PMS_P1;PMS_P2;Temp;Humidity;BMP_temperature;BMP_pressure;BME280_temperature;BME280_humidity;BME280_pressure;Samples;Min_cycle;Max_cycle;Signal;HPM_P1;HPM_P2
2022/04/28 00:02:01;;;;;;;16.08;6.45;;;9.30;99.90;;;;;;5032356;28;20428;-63
2022/04/28 00:04:27;;;;;;;11.80;6.20;;;;;;;;;;5015834;28;20628;-62
2022/04/28 00:06:53;;;;;;;12.90;6.28;;;;;;;;;;5023234;28;20446;-63
2022/04/28 00:09:19;;;;;;;14.20;6.75;;;;;;;;;;5031899;28;20411;-66
2022/04/28 00:11:47;;;;;;;14.32;6.07;;;;;;;;;;5014547;28;22058;-63
2022/04/28 00:14:13;;;;;;;12.73;6.27;;;;;;;;;;5026965;28;20427;-63
2022/04/28 00:16:39;;;;;;;13.23;6.32;;;;;;;;;;5028619;28;20484;-63
2022/04/28 00:19:05;;;;;;;13.90;6.35;;;;;;;;;;5021891;28;20415;-63
2022/04/28 00:21:31;;;;;;;14.00;6.40;;;;;;;;;;5023801;28;20446;-63
2022/04/28 00:23:58;;;;;;;12.95;6.47;;;;;;;;;;5030092;28;20504;-63
2022/04/28 00:26:23;;;;;;;14.43;6.10;;;9.20;99.90;;;;;;5026004;28;20951;-63
2022/04/28 00:28:49;;;;;;;11.82;6.25;;;;;;;;;;5025754;28;20409;-63
2022/04/28 00:31:15;;;;;;;11.73;6.10;;;;;;;;;;5032747;28;20423;-63
2022/04/28 00:33:41;;;;;;;13.10;6.73;;;;;;;;;;5025028;28;20421;-63
2022/04/28 00:36:08;;;;;;;15.27;6.05;;;9.20;99.90;;;;;;5027503;28;20423;-63
2022/04/28 00:38:34;;;;;;;13.48;5.50;;;;;;;;;;5030832;28;20485;-63
2022/04/28 00:41:01;;;;;;;13.23;5.30;;;;;;;;;;5033462;28;20415;-63
2022/04/28 00:43:30;;;;;;;12.23;5.38;;;;;;;;;;5028217;28;20435;-62
2022/04/28 00:45:57;;;;;;;13.30;5.05;;;;;;;;;;5021741;28;20467;-63
2022/04/28 00:51:08;;;;;;;10.30;5.05;;;9.10;99.90;;;;;;5032815;28;20423;-62
2022/04/28 00:53:42;;;;;;;10.30;4.68;;;;;;;;;;5036644;28;20430;-63
2022/04/28 00:56:09;;;;;;;12.63;4.40;;;9.00;99.90;;;;;;5027021;28;20441;-63
2022/04/28 00:58:38;;;;;;;13.65;4.50;;;;;;;;;;5019822;28;20425;-62
2022/04/28 01:01:04;;;;;;;11.68;4.88;;;9.00;99.90;;;;;;5025536;28;20490;-63
2022/04/28 01:03:30;;;;;;;11.00;4.82;;;;;;;;;;5030462;28;20449;-63
2022/04/28 01:05:57;;;;;;;13.57;5.05;;;;;;;;;;5010763;28;20472;-63
2022/04/28 01:08:23;;;;;;;13.35;5.05;;;9.00;99.90;;;;;;5027224;28;20423;-63
2022/04/28 01:10:49;;;;;;;11.70;4.15;;;;;;;;;;5017832;28;20435;-63
2022/04/28 01:13:15;;;;;;;11.35;4.53;;;9.00;99.90;;;;;;5027962;28;20451;-63
2022/04/28 01:15:45;;;;;;;13.32;5.10;;;;;;;;;;5024906;28;20438;-63
2022/04/28 01:18:11;;;;;;;10.43;4.45;;;;;;;;;;5017941;28;20536;-63
2022/04/28 01:20:37;;;;;;;11.90;4.65;;;;;;;;;;5021942;28;20799;-63
2022/04/28 01:23:07;;;;;;;10.30;4.68;;;;;;;;;;5025133;28;20431;-63
2022/04/28 01:25:34;;;;;;;10.35;5.00;;;;;;;;;;5029168;28;20437;-62
2022/04/28 01:28:00;;;;;;;10.23;4.85;;;;;;;;;;5033201;28;20419;-62
2022/04/28 01:30:26;;;;;;;11.43;4.90;;;;;;;;;;5026247;28;20436;-62
2022/04/28 01:32:53;;;;;;;11.43;4.45;;;;;;;;;;5028591;28;20444;-63
2022/04/28 01:35:19;;;;;;;12.00;4.68;;;;;;;;;;5029551;28;20940;-63
2022/04/28 01:37:45;;;;;;;10.52;4.65;;;;;;;;;;5029457;28;20508;-63
2022/04/28 01:40:12;;;;;;;11.23;4.90;;;;;;;;;;5024649;28;20418;-62
2022/04/28 01:42:50;;;;;;;11.52;5.18;;;8.90;99.90;;;;;;5033862;28;20429;-62
2022/04/28 01:45:17;;;;;;;11.57;5.03;;;;;;;;;;5022637;28;20475;-63
2022/04/28 01:47:43;;;;;;;11.70;5.32;;;;;;;;;;5018802;28;20431;-63
2022/04/28 01:50:12;;;;;;;10.95;4.78;;;;;;;;;;5028362;28;20478;-63
2022/04/28 01:55:24;;;;;;;14.95;5.90;;;;;;;;;;5023891;28;20424;-63
2022/04/28 01:57:51;;;;;;;10.25;4.75;;;;;;;;;;5028527;28;20419;-63
2022/04/28 02:00:17;;;;;;;8.73;4.82;;;;;;;;;;5024498;28;20811;-62
2022/04/28 02:02:44;;;;;;;10.25;5.10;;;;;;;;;;5026330;28;20445;-62
2022/04/28 02:05:10;;;;;;;11.63;4.90;;;;;;;;;;5019144;28;20951;-62
2022/04/28 02:07:37;;;;;;;12.15;4.68;;;;;;;;;;5020229;28;20452;-63
2022/04/28 02:10:06;;;;;;;9.30;4.40;;;8.70;99.90;;;;;;5031154;28;20431;-63
2022/04/28 02:12:32;;;;;;;11.02;5.03;;;;;;;;;;5021363;28;20450;-62
2022/04/28 02:14:58;;;;;;;12.27;5.28;;;8.70;99.90;;;;;;5036020;28;20418;-62
2022/04/28 02:17:25;;;;;;;11.87;5.13;;;;;;;;;;5009955;28;20427;-62
2022/04/28 02:19:51;;;;;;;10.65;5.28;;;;;;;;;;5014539;28;20419;-62
2022/04/28 02:22:17;;;;;;;11.98;4.78;;;;;;;;;;5025369;28;20930;-63
2022/04/28 02:24:43;;;;;;;13.23;4.60;;;;;;;;;;5023776;28;20447;-63
2022/04/28 02:27:09;;;;;;;9.38;4.70;;;;;;;;;;5030540;28;20418;-63
2022/04/28 02:29:36;;;;;;;9.23;4.90;;;;;;;;;;5025966;28;20418;-63
2022/04/28 02:32:02;;;;;;;13.07;5.50;;;;;;;;;;5028031;28;20502;-63
2022/04/28 02:34:28;;;;;;;13.03;5.60;;;;;;;;;;5035580;28;20577;-62
2022/04/28 02:36:54;;;;;;;12.55;4.95;;;;;;;;;;5020334;28;21021;-63
2022/04/28 02:39:20;;;;;;;12.95;5.00;;;;;;;;;;5021243;28;20514;-63
2022/04/28 02:41:46;;;;;;;12.95;5.22;;;;;;;;;;5034566;28;20423;-63
2022/04/28 02:44:13;;;;;;;11.93;5.22;;;;;;;;;;5033379;28;20451;-62
2022/04/28 02:46:42;;;;;;;11.35;4.85;;;;;;;;;;5025147;28;20814;-63
2022/04/28 02:49:08;;;;;;;10.15;4.90;;;;;;;;;;5028563;28;20454;-63
2022/04/28 02:51:34;;;;;;;10.27;4.57;;;;;;;;;;5024551;28;20471;-61
2022/04/28 02:54:00;;;;;;;10.77;4.50;;;8.70;99.90;;;;;;5028446;28;20490;-63
2022/04/28 02:56:26;;;;;;;12.03;4.80;;;;;;;;;;5030350;28;20743;-63
2022/04/28 02:58:53;;;;;;;8.10;4.28;;;;;;;;;;5031671;28;20423;-63
2022/04/28 03:01:20;;;;;;;11.52;4.53;;;;;;;;;;5022924;28;20668;-63
2022/04/28 03:03:46;;;;;;;11.02;4.60;;;8.70;99.90;;;;;;5035270;28;20426;-63
2022/04/28 03:11:41;;;;;;;10.77;4.70;;;;;;;;;;5021494;28;20423;-62
2022/04/28 03:14:09;;;;;;;11.75;4.72;;;;;;;;;;5018355;28;20424;-63
2022/04/28 03:16:37;;;;;;;13.95;5.10;;;;;;;;;;5019805;28;20436;-63
2022/04/28 03:19:03;;;;;;;13.07;4.80;;;;;;;;;;5025231;28;20428;-63
2022/04/28 03:21:29;;;;;;;11.45;5.07;;;8.60;99.90;;;;;;5030840;28;20498;-62
2022/04/28 03:23:55;;;;;;;12.73;5.03;;;;;;;;;;5031761;28;20429;-63
2022/04/28 03:26:22;;;;;;;12.10;4.93;;;;;;;;;;5028812;28;20500;-62
2022/04/28 03:28:48;;;;;;;13.73;5.18;;;;;;;;;;5026966;28;20426;-63
2022/04/28 03:31:14;;;;;;;9.32;4.88;;;;;;;;;;5033984;28;20442;-63
2022/04/28 03:33:40;;;;;;;12.77;5.07;;;;;;;;;;5019861;28;20449;-63
2022/04/28 03:36:50;;;;;;;12.52;5.13;;;;;;;;;;5030202;28;20426;-63
2022/04/28 03:38:53;;;;;;;13.18;4.72;;;;;;;;;;5037036;28;20433;-62
2022/04/28 03:41:19;;;;;;;11.73;4.82;;;;;;;;;;5023582;28;20439;-63
2022/04/28 03:43:45;;;;;;;10.10;4.88;;;;;;;;;;5031232;28;20454;-64
2022/04/28 03:46:11;;;;;;;9.77;5.32;;;;;;;;;;5029749;28;20435;-62
2022/04/28 03:48:37;;;;;;;14.40;5.40;;;8.50;99.90;;;;;;5036551;28;20534;-63
2022/04/28 03:51:04;;;;;;;12.65;5.80;;;;;;;;;;5031626;28;20429;-63
2022/04/28 03:53:30;;;;;;;10.55;5.47;;;;;;;;;;5029560;28;20429;-63
2022/04/28 03:55:57;;;;;;;11.32;5.43;;;;;;;;;;5027451;28;20438;-62
2022/04/28 03:58:25;;;;;;;12.10;5.57;;;8.70;99.90;;;;;;5028184;28;20469;-63
2022/04/28 04:00:52;;;;;;;10.93;5.70;;;;;;;;;;5025368;28;20480;-62
2022/04/28 04:03:19;;;;;;;11.05;5.60;;;;;;;;;;5025487;28;20426;-63
2022/04/28 04:05:45;;;;;;;11.43;5.10;;;8.60;99.90;;;;;;5033500;28;20942;-63
2022/04/28 04:08:11;;;;;;;10.68;5.43;;;;;;;;;;5024608;28;20427;-62
2022/04/28 04:10:37;;;;;;;9.90;5.50;;;;;;;;;;5023633;28;20422;-63
2022/04/28 04:13:04;;;;;;;9.57;5.40;;;;;;;;;;5026577;28;20439;-63
2022/04/28 04:15:32;;;;;;;12.75;5.60;;;;;;;;;;5032918;28;20433;-63
2022/04/28 04:17:58;;;;;;;11.13;5.65;;;;;;;;;;5023749;28;20425;-63
2022/04/28 04:20:25;;;;;;;13.55;6.10;;;;;;;;;;5027104;28;20456;-64
2022/04/28 04:22:52;;;;;;;10.43;5.70;;;;;;;;;;5027422;28;20794;-63
2022/04/28 04:25:18;;;;;;;9.98;5.80;;;;;;;;;;5028460;28;20446;-63
2022/04/28 04:27:45;;;;;;;12.35;5.82;;;;;;;;;;5032460;28;20517;-62
2022/04/28 04:32:56;;;;;;;12.50;5.97;;;;;;;;;;5020845;28;20510;-63
2022/04/28 04:35:23;;;;;;;9.75;5.60;;;;;;;;;;5032736;28;20430;-63
2022/04/28 04:37:50;;;;;;;11.85;5.53;;;9.20;99.90;;;;;;5021119;28;20487;-62
2022/04/28 04:40:16;;;;;;;11.98;5.95;;;;;;;;;;5022971;28;20448;-63
2022/04/28 04:42:42;;;;;;;13.45;6.30;;;8.90;99.90;;;;;;5030179;28;20443;-63
2022/04/28 04:45:09;;;;;;;10.23;5.82;;;;;;;;;;5032132;28;20435;-63
2022/04/28 04:47:36;;;;;;;11.20;6.07;;;;;;;;;;5031637;28;20444;-63
2022/04/28 04:50:02;;;;;;;14.15;5.90;;;;;;;;;;5029171;28;20430;-63
2022/04/28 04:52:28;;;;;;;12.35;6.25;;;;;;;;;;5033477;28;20418;-63
2022/04/28 04:54:54;;;;;;;11.00;5.78;;;;;;;;;;5029504;28;20426;-62
2022/04/28 04:57:20;;;;;;;14.00;5.75;;;;;;;;;;5023635;28;20460;-62
2022/04/28 04:59:46;;;;;;;11.67;5.83;;;;;;;;;;5035009;28;20430;-62
2022/04/28 05:02:12;;;;;;;11.70;6.00;;;;;;;;;;5025506;28;20431;-63
2022/04/28 05:04:38;;;;;;;11.10;6.00;;;9.00;99.90;;;;;;5027179;28;20432;-63
2022/04/28 05:07:04;;;;;;;12.30;6.32;;;;;;;;;;5024651;28;20439;-63
2022/04/28 05:09:30;;;;;;;15.35;6.55;;;;;;;;;;5034823;28;20510;-63
2022/04/28 05:11:56;;;;;;;14.23;6.30;;;;;;;;;;5029644;28;20419;-63
2022/04/28 05:14:22;;;;;;;10.48;6.00;;;;;;;;;;5035326;28;20434;-62
2022/04/28 05:16:48;;;;;;;14.63;7.13;;;;;;;;;;5022419;28;20431;-62
2022/04/28 05:19:14;;;;;;;15.98;6.43;;;;;;;;;;5017682;28;20435;-63
2022/04/28 05:21:40;;;;;;;19.02;6.93;;;9.10;99.90;;;;;;5033787;28;20482;-63
2022/04/28 05:24:06;;;;;;;11.80;5.82;;;;;;;;;;5026368;28;20419;-63
2022/04/28 05:26:33;;;;;;;14.50;7.50;;;;;;;;;;5023004;28;20938;-64
2022/04/28 05:28:59;;;;;;;13.48;7.10;;;;;;;;;;5033691;28;20449;-64
2022/04/28 05:31:25;;;;;;;14.75;6.78;;;;;;;;;;5024290;28;20437;-63
2022/04/28 05:33:51;;;;;;;13.77;7.55;;;;;;;;;;5021090;28;20433;-63
2022/04/28 05:36:17;;;;;;;12.25;7.20;;;;;;;;;;5021047;28;20464;-63
2022/04/28 05:38:44;;;;;;;15.25;7.05;;;;;;;;;;5026282;28;20420;-63
2022/04/28 05:41:10;;;;;;;12.10;7.00;;;;;;;;;;5028871;28;20436;-63
2022/04/28 05:46:23;;;;;;;13.60;7.05;;;;;;;;;;5025265;28;20835;-63
2022/04/28 05:48:49;;;;;;;14.40;6.80;;;;;;;;;;5032923;28;20586;-62
2022/04/28 05:51:15;;;;;;;15.90;7.07;;;9.10;99.90;;;;;;5014649;28;20504;-61
2022/04/28 05:53:41;;;;;;;14.73;7.00;;;;;;;;;;5015104;28;20474;-61
2022/04/28 05:56:07;;;;;;;14.93;6.77;;;;;;;;;;5016141;28;20460;-61
2022/04/28 05:58:36;;;;;;;17.90;7.72;;;;;;;;;;5010384;28;20495;-61
2022/04/28 06:01:03;;;;;;;14.93;7.07;;;;;;;;;;5026494;28;20431;-62
2022/04/28 06:03:29;;;;;;;14.60;7.05;;;;;;;;;;5019411;28;20432;-62
2022/04/28 06:05:55;;;;;;;15.93;7.75;;;;;;;;;;5020534;28;20620;-63
2022/04/28 06:08:21;;;;;;;16.23;6.15;;;9.50;99.90;;;;;;5027592;28;20450;-62
2022/04/28 06:10:47;;;;;;;13.80;6.60;;;;;;;;;;5028732;28;20501;-63
2022/04/28 06:13:13;;;;;;;14.75;5.78;;;;;;;;;;5020477;28;20444;-63
2022/04/28 06:15:39;;;;;;;11.02;5.07;;;;;;;;;;5028943;28;20409;-62
2022/04/28 06:18:06;;;;;;;9.85;4.80;;;;;;;;;;5031249;28;20502;-62
2022/04/28 06:20:32;;;;;;;13.90;5.37;;;;;;;;;;5022111;28;20556;-62
2022/04/28 06:22:58;;;;;;;10.77;4.28;;;;;;;;;;5030688;28;20430;-62
2022/04/28 06:25:24;;;;;;;14.90;4.45;;;9.80;99.90;;;;;;5037375;28;20949;-61
2022/04/28 06:27:51;;;;;;;15.82;4.95;;;;;;;;;;5029556;28;20838;-62
2022/04/28 06:30:17;;;;;;;10.23;3.70;;;;;;;;;;5028030;28;20435;-63
2022/04/28 06:32:43;;;;;;;9.03;3.53;;;;;;;;;;5025894;28;20427;-63
2022/04/28 06:35:10;;;;;;;9.85;3.30;;;;;;;;;;5032750;28;20418;-63
2022/04/28 06:37:36;;;;;;;10.27;3.37;;;;;;;;;;5013689;28;20621;-62
2022/04/28 06:40:03;;;;;;;8.95;3.03;;;;;;;;;;5025376;28;20432;-62
2022/04/28 06:42:29;;;;;;;9.00;3.17;;;;;;;;;;5024751;28;20435;-61
2022/04/28 06:44:55;;;;;;;11.10;3.83;;;;;;;;;;5015430;28;20491;-62
2022/04/28 06:47:21;;;;;;;12.13;3.83;;;10.30;99.90;;;;;;5025285;28;20429;-63
2022/04/28 06:49:47;;;;;;;11.52;4.07;;;;;;;;;;5011119;28;20529;-62
2022/04/28 06:52:13;;;;;;;14.10;4.30;;;10.30;99.90;;;;;;5009737;28;20416;-62
2022/04/28 06:54:39;;;;;;;9.43;3.90;;;;;;;;;;5007628;28;20530;-62
2022/04/28 06:57:05;;;;;;;9.38;3.53;;;;;;;;;;5011570;28;20479;-62
2022/04/28 06:59:31;;;;;;;10.30;3.57;;;;;;;;;;5007303;28;20433;-62
2022/04/28 07:01:58;;;;;;;10.35;3.75;;;;;;;;;;5011668;28;20479;-63
2022/04/28 07:04:24;;;;;;;9.33;3.53;;;10.80;99.90;;;;;;5007787;28;20539;-62
2022/04/28 07:06:50;;;;;;;10.03;3.77;;;;;;;;;;5010174;28;20431;-67
2022/04/28 07:09:16;;;;;;;13.70;4.05;;;;;;;;;;5010675;28;20435;-62
2022/04/28 07:11:42;;;;;;;8.20;3.83;;;;;;;;;;5003456;28;20992;-62
2022/04/28 07:14:08;;;;;;;11.10;4.13;;;11.10;99.90;;;;;;5012010;28;20482;-63
2022/04/28 07:16:34;;;;;;;15.67;4.03;;;;;;;;;;5006135;28;20472;-63
2022/04/28 07:19:00;;;;;;;9.48;3.92;;;;;;;;;;5007700;28;20536;-63
2022/04/28 07:21:26;;;;;;;13.13;4.38;;;;;;;;;;5011540;28;20424;-62
2022/04/28 07:23:52;;;;;;;10.27;3.88;;;;;;;;;;5009514;28;20436;-63
2022/04/28 07:26:18;;;;;;;10.52;3.92;;;;;;;;;;5012066;28;20940;-63
2022/04/28 07:28:44;;;;;;;10.07;4.22;;;;;;;;;;5006973;28;20432;-63
2022/04/28 07:31:10;;;;;;;11.38;4.15;;;;;;;;;;5009238;28;20475;-63
2022/04/28 07:33:37;;;;;;;12.80;4.00;;;;;;;;;;5006333;28;20429;-63
2022/04/28 07:36:03;;;;;;;10.18;4.50;;;;;;;;;;5012126;28;20432;-63
2022/04/28 07:38:29;;;;;;;10.47;4.30;;;;;;;;;;5012739;28;20746;-62
2022/04/28 07:40:55;;;;;;;9.73;3.90;;;;;;;;;;5006484;28;20428;-63
2022/04/28 07:43:22;;;;;;;9.35;4.35;;;;;;;;;;5012542;28;20536;-63
2022/04/28 07:45:49;;;;;;;9.43;3.87;;;;;;;;;;5009691;28;20532;-63
2022/04/28 07:48:15;;;;;;;9.23;3.43;;;;;;;;;;5008971;28;20440;-63
2022/04/28 07:50:41;;;;;;;12.45;4.03;;;;;;;;;;5006103;28;20524;-63
2022/04/28 07:53:07;;;;;;;7.43;3.60;;;;;;;;;;5008341;28;20434;-64
2022/04/28 07:55:33;;;;;;;7.90;2.90;;;12.00;99.90;;;;;;5006870;28;20831;-63
2022/04/28 07:57:59;;;;;;;6.57;2.50;;;;;;;;;;5007354;28;20674;-62
2022/04/28 08:00:25;;;;;;;11.20;3.05;;;;;;;;;;5010523;28;20448;-63
2022/04/28 08:02:51;;;;;;;8.95;2.70;;;;;;;;;;5006338;28;20428;-63
2022/04/28 08:05:17;;;;;;;8.68;2.70;;;;;;;;;;5010436;28;20435;-63
2022/04/28 08:07:44;;;;;;;8.55;3.00;;;12.00;99.90;;;;;;5005503;28;20503;-63
2022/04/28 08:10:12;;;;;;;8.43;2.78;;;;;;;;;;5009800;28;20432;-63
2022/04/28 08:12:39;;;;;;;7.77;2.33;;;;;;;;;;5007419;28;20641;-62
2022/04/28 08:15:06;;;;;;;9.57;2.78;;;11.80;99.90;;;;;;5006030;28;20446;-63
2022/04/28 08:17:32;;;;;;;11.82;3.00;;;;;;;;;;5010717;28;21622;-63
2022/04/28 08:19:58;;;;;;;9.40;2.55;;;;;;;;;;5005915;28;20445;-63
2022/04/28 08:22:24;;;;;;;9.03;2.50;;;;;;;;;;5010507;28;20880;-63
2022/04/28 08:24:50;;;;;;;8.75;2.47;;;;;;;;;;5007113;28;20435;-63
2022/04/28 08:27:16;;;;;;;10.35;2.83;;;;;;;;;;5003026;28;20866;-62
2022/04/28 08:29:42;;;;;;;8.73;2.40;;;;;;;;;;5007361;28;20451;-62
2022/04/28 08:32:09;;;;;;;7.80;2.35;;;;;;;;;;5009631;28;20417;-64
2022/04/28 08:34:36;;;;;;;7.53;2.63;;;;;;;;;;5009596;28;20551;-63
2022/04/28 08:37:02;;;;;;;7.47;2.20;;;;;;;;;;5005813;28;20429;-62
2022/04/28 08:39:28;;;;;;;9.55;2.58;;;;;;;;;;5009362;28;20428;-62
2022/04/28 08:41:58;;;;;;;10.30;2.53;;;;;;;;;;5004697;28;20481;-63
2022/04/28 08:44:25;;;;;;;8.38;2.30;;;;;;;;;;5005792;28;20437;-63
2022/04/28 08:46:53;;;;;;;7.68;2.38;;;;;;;;;;5008737;28;20526;-63
2022/04/28 08:49:26;;;;;;;9.20;2.65;;;;;;;;;;5009386;28;20424;-63
2022/04/28 08:51:53;;;;;;;9.77;2.60;;;;;;;;;;5009721;28;20522;-63
2022/04/28 08:54:20;;;;;;;8.43;2.60;;;;;;;;;;5003249;28;20441;-63
2022/04/28 08:56:46;;;;;;;8.13;2.37;;;;;;;;;;5003843;28;20511;-62
2022/04/28 08:59:14;;;;;;;9.73;2.33;;;;;;;;;;5004183;28;20857;-63
2022/04/28 09:01:40;;;;;;;7.65;2.30;;;;;;;;;;5009722;28;20443;-63
2022/04/28 09:04:07;;;;;;;8.55;2.20;;;;;;;;;;5008917;28;20425;-63
2022/04/28 09:06:34;;;;;;;8.10;2.30;;;;;;;;;;5009233;28;20800;-63
2022/04/28 09:09:04;;;;;;;8.40;2.28;;;;;;;;;;5008072;28;20492;-63
2022/04/28 09:11:32;;;;;;;8.05;1.90;;;;;;;;;;5008623;28;20462;-63
2022/04/28 09:14:11;;;;;;;6.15;2.40;;;;;;;;;;5007824;28;20463;-63
2022/04/28 09:16:41;;;;;;;8.13;2.50;;;;;;;;;;5005725;28;20499;-62
2022/04/28 09:19:07;;;;;;;9.25;2.38;;;;;;;;;;5007733;28;20814;-63
2022/04/28 09:21:34;;;;;;;9.60;2.30;;;;;;;;;;5010805;28;20440;-63
2022/04/28 09:24:00;;;;;;;8.23;2.42;;;;;;;;;;5007695;28;20424;-63
2022/04/28 09:26:27;;;;;;;11.23;2.20;;;;;;;;;;5007737;28;20432;-63
2022/04/28 09:28:54;;;;;;;11.85;2.88;;;;;;;;;;5007116;28;20424;-63
2022/04/28 09:31:21;;;;;;;20.17;3.00;;;;;;;;;;5005665;28;20503;-63
2022/04/28 09:33:50;;;;;;;9.05;2.83;;;;;;;;;;5007101;28;20526;-63
2022/04/28 09:36:17;;;;;;;8.07;2.60;;;;;;;;;;5007865;28;20439;-63
2022/04/28 09:38:42;;;;;;;10.15;2.60;;;12.50;99.90;;;;;;5010950;28;20433;-62
2022/04/28 09:43:57;;;;;;;9.10;2.72;;;;;;;;;;5013610;28;20436;-63
2022/04/28 09:46:23;;;;;;;10.23;2.63;;;;;;;;;;5009973;28;20437;-63
2022/04/28 09:48:51;;;;;;;8.13;2.70;;;;;;;;;;5013686;28;20481;-64
2022/04/28 09:51:22;;;;;;;9.43;3.15;;;12.60;99.90;;;;;;5009074;28;20441;-63
2022/04/28 09:53:48;;;;;;;11.02;3.42;;;;;;;;;;5013708;28;20526;-63
2022/04/28 09:56:16;;;;;;;9.18;3.33;;;;;;;;;;5012155;28;20424;-64
2022/04/28 09:58:42;;;;;;;10.60;3.20;;;;;;;;;;5009754;28;20452;-63
2022/04/28 10:01:09;;;;;;;8.50;3.22;;;;;;;;;;5012546;28;20428;-63
2022/04/28 10:03:38;;;;;;;8.57;3.55;;;;;;;;;;5006991;28;20492;-63
2022/04/28 10:06:05;;;;;;;9.93;3.78;;;;;;;;;;5008747;28;21025;-63
2022/04/28 10:08:36;;;;;;;9.82;3.20;;;;;;;;;;5013345;28;20504;-63
2022/04/28 10:11:03;;;;;;;11.27;3.77;;;;;;;;;;5008625;28;20429;-63
2022/04/28 10:13:30;;;;;;;8.75;3.55;;;;;;;;;;5013000;28;20995;-63
2022/04/28 10:15:58;;;;;;;11.80;3.97;;;;;;;;;;5010175;28;20654;-63
2022/04/28 10:18:26;;;;;;;11.35;3.60;;;;;;;;;;5013452;28;20428;-63
2022/04/28 10:20:58;;;;;;;10.98;3.33;;;;;;;;;;5007412;28;20427;-63
2022/04/28 10:35:05;;;;;;;11.38;4.18;;;;;;;;;;5009085;28;20440;-62
2022/04/28 10:37:36;;;;;;;11.93;3.50;;;;;;;;;;5009615;28;20500;-63
2022/04/28 10:40:03;;;;;;;9.15;3.65;;;;;;;;;;5011511;28;20449;-62
2022/04/28 10:42:30;;;;;;;12.18;3.80;;;;;;;;;;5010954;28;20423;-62
2022/04/28 10:44:57;;;;;;;10.85;3.60;;;;;;;;;;5012315;28;21044;-63
2022/04/28 10:47:23;;;;;;;7.80;3.78;;;;;;;;;;5010844;28;20432;-63
2022/04/28 10:49:53;;;;;;;12.13;4.43;;;13.60;99.90;;;;;;5009537;28;20437;-63
2022/04/28 10:52:21;;;;;;;11.02;4.20;;;;;;;;;;5008939;28;20651;-63
2022/04/28 10:54:51;;;;;;;9.13;4.00;;;;;;;;;;5010197;28;20515;-63
2022/04/28 10:57:18;;;;;;;10.43;4.18;;;;;;;;;;5011704;28;20424;-63
2022/04/28 10:59:49;;;;;;;12.93;4.40;;;;;;;;;;5010394;28;20429;-62
2022/04/28 11:02:21;;;;;;;10.05;4.30;;;;;;;;;;5008238;28;20424;-64
2022/04/28 11:04:52;;;;;;;10.40;4.30;;;;;;;;;;5010533;28;20433;-63
2022/04/28 11:07:25;;;;;;;8.75;3.90;;;;;;;;;;5010515;28;20425;-63
2022/04/28 11:09:55;;;;;;;11.65;4.40;;;;;;;;;;5007881;28;21135;-63
2022/04/28 11:12:22;;;;;;;11.88;4.25;;;;;;;;;;5009410;28;21169;-62
2022/04/28 11:14:49;;;;;;;13.47;4.40;;;;;;;;;;5012327;28;20432;-63
2022/04/28 11:17:16;;;;;;;12.57;4.22;;;;;;;;;;5009697;28;20432;-63
2022/04/28 11:19:43;;;;;;;10.32;4.30;;;;;;;;;;5010460;28;20460;-64
2022/04/28 11:22:11;;;;;;;11.77;4.00;;;;;;;;;;5011844;28;20460;-64
2022/04/28 11:24:44;;;;;;;11.55;4.53;;;;;;;;;;5005731;28;20432;-64
2022/04/28 11:27:28;;;;;;;11.35;4.30;;;;;;;;;;5011439;28;20420;-62
2022/04/28 11:29:56;;;;;;;12.63;4.35;;;;;;;;;;5007542;28;20434;-66
2022/04/28 11:32:22;;;;;;;12.80;4.25;;;;;;;;;;5007736;28;20429;-63
2022/04/28 11:34:50;;;;;;;11.95;4.40;;;;;;;;;;5009205;28;20428;-64
2022/04/28 11:37:17;;;;;;;11.73;4.28;;;;;;;;;;5008160;28;21053;-64
2022/04/28 11:39:47;;;;;;;14.07;4.00;;;;;;;;;;5011018;28;21611;-64
2022/04/28 11:42:16;;;;;;;13.02;4.40;;;;;;;;;;5008466;28;21778;-64
2022/04/28 11:44:50;;;;;;;14.07;4.45;;;;;;;;;;5009783;28;20451;-64
2022/04/28 11:47:17;;;;;;;10.47;3.80;;;;;;;;;;5011878;28;20890;-63
2022/04/28 11:49:43;;;;;;;12.30;3.67;;;;;;;;;;5003492;28;21154;-64
2022/04/28 11:52:21;;;;;;;12.80;4.00;;;;;;;;;;5006955;28;20452;-63
2022/04/28 11:55:08;;;;;;;13.87;3.67;;;;;;;;;;5001249;28;20452;-63
2022/04/28 11:57:37;;;;;;;9.90;4.07;;;;;;;;;;4999203;28;21560;-63
2022/04/28 12:00:04;;;;;;;14.40;4.10;;;;;;;;;;5002698;28;20476;-64
2022/04/28 12:02:32;;;;;;;11.60;3.65;;;;;;;;;;5002023;28;22421;-64
2022/04/28 12:04:59;;;;;;;10.40;3.70;;;;;;;;;;5003888;28;20432;-64
2022/04/28 12:07:28;;;;;;;10.20;3.72;;;;;;;;;;5004656;28;20438;-66
2022/04/28 12:15:25;;;;;;;11.65;3.47;;;;;;;;;;5003309;28;20433;-63
2022/04/28 12:21:14;;;;;;;11.82;3.50;;;;;;;;;;5002911;28;20429;-63
2022/04/28 12:23:41;;;;;;;12.02;3.60;;;;;;;;;;4998604;28;20444;-63
2022/04/28 12:26:08;;;;;;;12.38;3.58;;;;;;;;;;5002348;28;20436;-63
2022/04/28 12:28:38;;;;;;;9.68;3.50;;;;;;;;;;5002535;28;21050;-64
2022/04/28 12:31:05;;;;;;;10.17;3.50;;;;;;;;;;5006006;28;20529;-63
2022/04/28 12:33:35;;;;;;;14.32;3.88;;;;;;;;;;5006392;28;20464;-64
2022/04/28 12:36:02;;;;;;;12.27;3.60;;;;;;;;;;5005304;28;20773;-63
2022/04/28 12:38:30;;;;;;;11.82;3.50;;;;;;;;;;5000781;28;20425;-63
2022/04/28 12:40:56;;;;;;;12.73;3.55;;;;;;;;;;4998379;28;20440;-63
2022/04/28 12:43:38;;;;;;;8.67;3.23;;;;;;;;;;5008808;28;20439;-63
2022/04/28 12:46:06;;;;;;;11.70;3.88;;;;;;;;;;5004352;28;20457;-64
2022/04/28 12:48:36;;;;;;;11.43;3.95;;;;;;;;;;5004820;28;20435;-63
2022/04/28 12:51:09;;;;;;;10.43;3.63;;;;;;;;;;5010194;28;20460;-63
2022/04/28 12:53:36;;;;;;;9.93;3.70;;;;;;;;;;5007231;28;20420;-64
2022/04/28 12:56:10;;;;;;;14.50;3.90;;;13.30;99.90;;;;;;5008280;28;20467;-63
2022/04/28 12:58:37;;;;;;;11.32;3.80;;;;;;;;;;5002643;28;20868;-64
2022/04/28 13:01:03;;;;;;;12.75;4.50;;;;;;;;;;5005425;28;20437;-64
2022/04/28 13:03:30;;;;;;;13.10;4.10;;;;;;;;;;5006365;28;20962;-63
2022/04/28 13:05:56;;;;;;;12.70;3.70;;;;;;;;;;5004368;28;20440;-63
2022/04/28 13:08:22;;;;;;;10.65;3.78;;;;;;;;;;5007026;28;20425;-63
2022/04/28 13:10:49;;;;;;;8.48;3.97;;;;;;;;;;5009388;28;20433;-63
2022/04/28 13:13:15;;;;;;;13.43;4.35;;;;;;;;;;5008702;28;20429;-62
2022/04/28 13:15:41;;;;;;;11.35;3.85;;;;;;;;;;4986624;28;20425;-63
2022/04/28 13:18:07;;;;;;;13.02;4.10;;;;;;;;;;5008386;28;20440;-63
2022/04/28 13:20:34;;;;;;;7.78;3.60;;;;;;;;;;5005845;28;20447;-63
2022/04/28 13:22:59;;;;;;;10.00;3.70;;;13.70;99.90;;;;;;5005559;28;20722;-62
2022/04/28 13:25:25;;;;;;;11.52;3.80;;;13.40;99.90;;;;;;5003692;28;20489;-62
2022/04/28 13:27:51;;;;;;;9.68;3.83;;;;;;;;;;5005620;28;20428;-62
2022/04/28 13:30:17;;;;;;;11.35;4.45;;;;;;;;;;5001998;28;20442;-62
2022/04/28 13:32:43;;;;;;;11.38;4.40;;;;;;;;;;5007451;28;20471;-63
2022/04/28 13:35:10;;;;;;;11.33;3.77;;;;;;;;;;4988700;28;20428;-63
2022/04/28 13:37:36;;;;;;;9.80;3.80;;;;;;;;;;5006623;28;20485;-66
2022/04/28 13:40:02;;;;;;;12.85;3.90;;;13.70;99.90;;;;;;5011402;28;20541;-66
2022/04/28 13:42:28;;;;;;;10.13;3.80;;;;;;;;;;5008169;28;21001;-66
2022/04/28 13:44:54;;;;;;;11.13;3.83;;;;;;;;;;5009198;28;20421;-66
2022/04/28 13:47:20;;;;;;;9.90;3.70;;;;;;;;;;5008844;28;20435;-66
2022/04/28 13:49:46;;;;;;;10.23;3.78;;;;;;;;;;5007756;28;20455;-66
2022/04/28 13:52:12;;;;;;;14.77;4.20;;;;;;;;;;5009050;28;20420;-66
2022/04/28 13:54:39;;;;;;;10.43;3.97;;;;;;;;;;4983045;28;20464;-66
2022/04/28 13:57:05;;;;;;;10.60;3.90;;;;;;;;;;5008033;28;20425;-66
2022/04/28 13:59:31;;;;;;;8.43;3.85;;;;;;;;;;5008016;28;20915;-66
2022/04/28 14:01:57;;;;;;;13.68;4.55;;;;;;;;;;5003910;28;20512;-66
2022/04/28 14:04:26;;;;;;;8.32;3.70;;;;;;;;;;5010236;28;20436;-66
2022/04/28 14:06:53;;;;;;;10.80;4.45;;;;;;;;;;5002945;28;20440;-66
2022/04/28 14:09:20;;;;;;;8.90;3.63;;;;;;;;;;5006539;28;20435;-63
2022/04/28 14:11:46;;;;;;;13.07;4.07;;;;;;;;;;5002567;28;20430;-63
2022/04/28 14:14:13;;;;;;;8.75;3.65;;;;;;;;;;5007907;28;21006;-63
2022/04/28 14:16:39;;;;;;;13.05;4.28;;;;;;;;;;5010630;28;20489;-66
2022/04/28 14:19:06;;;;;;;10.13;3.97;;;;;;;;;;5013304;28;20432;-68
2022/04/28 14:21:33;;;;;;;10.45;4.47;;;;;;;;;;5010200;28;20433;-63
2022/04/28 14:24:00;;;;;;;9.73;3.83;;;;;;;;;;5001657;28;20434;-64
2022/04/28 14:26:26;;;;;;;10.02;3.80;;;;;;;;;;5014926;28;20467;-67
2022/04/28 14:28:52;;;;;;;7.90;3.60;;;;;;;;;;5009182;28;20442;-66
2022/04/28 14:31:18;;;;;;;9.88;3.72;;;;;;;;;;5010823;28;20990;-67
2022/04/28 14:33:45;;;;;;;7.72;3.60;;;;;;;;;;5007953;28;20423;-66
2022/04/28 14:36:11;;;;;;;9.40;3.67;;;;;;;;;;5014953;28;20586;-66
2022/04/28 14:38:37;;;;;;;12.15;3.53;;;;;;;;;;5022620;28;20548;-66
2022/04/28 14:41:03;;;;;;;11.23;3.67;;;;;;;;;;5031539;28;20491;-65
2022/04/28 14:43:29;;;;;;;8.65;3.67;;;;;;;;;;5027035;28;20417;-64
2022/04/28 14:45:56;;;;;;;9.63;3.65;;;;;;;;;;5020064;28;20435;-64
2022/04/28 14:48:22;;;;;;;8.05;3.40;;;;;;;;;;5009100;28;20419;-64
2022/04/28 14:53:34;;;;;;;7.93;3.30;;;;;;;;;;5018841;28;20421;-65
2022/04/28 14:56:00;;;;;;;8.43;3.23;;;;;;;;;;5024725;28;20423;-65
2022/04/28 14:58:26;;;;;;;10.13;3.10;;;;;;;;;;5022384;28;20415;-65
2022/04/28 15:00:52;;;;;;;7.00;3.00;;;;;;;;;;5017630;28;20429;-64
2022/04/28 15:03:19;;;;;;;7.13;2.90;;;;;;;;;;5023652;28;20796;-65